Portada
METAR-TAF:

METAR-TAF

Aeropuertos :

Olive Branch Airport

Olive Branch, Misisipi, Estados Unidos

latitud: 34-58-44N, longitud: 089-47-13W, altitud: 122 m

Observación

El informe se hizo hace 27 minutos, a las 17:50 UTC
Viento calma
Temperatura 11°C
Humedad 76%
Presión 1017 hPa
Visibilidad: 16.1 km
Cielo despejado

METAR: KOLV 271750Z 00000KT 10SM SKC 11/07 A3003

Hora: 12:17 (18:17 UTC)


TAF: falta

Observaciones y pronósticos meteorológicos de más de 4000 aeropuertos (mensajes METAR y TAF).

Los puntos amarillos y rojos representan las estaciones disponibles.

Ponga el ratón en el punto deseado para ver el nombre de la estación.

Haga clic para ver las observaciones y los pronósticos meteorológicos.

Para cambiar el mapa : haga clic en los botones verdes con una cruz de color negro para hacer un zoom, en el botón verde con un guión para alejar o en las flechas verdes para mapas adyacentes.


METAR-TAF: